^^
Grace C. Lehan Memorial Weather Station Historical Data
Daily Summary for May 6, 2022 Units:  English    Metric   Both
Daily Weekly Monthly Yearly
  High: Low: Average:
Temperature: 55.2 °F 33.9 °F 44.8 °F
Dew Point: 53 °F 31 °F 42.1 °F
Humidity: 95% 87.2% 90%
Wind Speed: 2.7mph 0mph 0.2mph
Wind Gust: 11mph - -
Wind- - South
Pressure: 30.35 in 30.25 in -
Precipitation: 0.17 in    
 
 
Tabular Data for May 6, 2022
Time Temperature Dew Point Pressure Wind Wind Speed Wind Gust Humidity Rainfall Rate (Hourly) solar
00:04 34 °F 31.2 °F 30.31 in Calm     89% 0.00 in 0 W/m2
00:09 33.9 °F 31 °F 30.31 in Calm     89% 0.00 in 0 W/m2
00:14 33.9 °F 31 °F 30.31 in Calm     89% 0.00 in 0 W/m2
00:19 33.9 °F 31 °F 30.30 in Calm     89.1% 0.00 in 0 W/m2
00:24 33.9 °F 31.3 °F 30.30 in Calm     90% 0.00 in 0 W/m2
00:29 34 °F 31.3 °F 30.31 in Calm     90% 0.00 in 0 W/m2
00:34 34 °F 31.4 °F 30.31 in Calm     90% 0.00 in 0 W/m2
00:39 34.1 °F 31.5 °F 30.31 in Calm     90% 0.00 in 0 W/m2
00:44 34.2 °F 31.6 °F 30.31 in Calm     90% 0.00 in 0 W/m2
00:49 34.3 °F 31.7 °F 30.32 in Calm     90% 0.00 in 0 W/m2
00:54 34.4 °F 31.8 °F 30.32 in Calm     90% 0.00 in 0 W/m2
00:59 34.4 °F 31.8 °F 30.33 in Calm     90% 0.00 in 0 W/m2
01:04 34.4 °F 31.8 °F 30.32 in Calm     90% 0.00 in 0 W/m2
01:09 34.4 °F 31.8 °F 30.32 in Calm     90% 0.00 in 0 W/m2
01:14 34.5 °F 32.1 °F 30.32 in Calm     90.7% 0.00 in 0 W/m2
01:19 34.6 °F 32 °F 30.33 in Calm     90% 0.00 in 0 W/m2
01:24 34.6 °F 32 °F 30.33 in Calm     90% 0.00 in 0 W/m2
01:29 34.7 °F 32 °F 30.33 in Calm     90% 0.00 in 0 W/m2
01:34 34.7 °F 32 °F 30.33 in Calm     90% 0.00 in 0 W/m2
01:39 34.6 °F 32 °F 30.33 in Calm     90% 0.00 in 0 W/m2
01:44 34.6 °F 32 °F 30.33 in Calm     90% 0.00 in 0 W/m2
01:49 34.6 °F 32 °F 30.33 in Calm     90% 0.00 in 0 W/m2
01:54 34.6 °F 32 °F 30.33 in Calm     90% 0.00 in 0 W/m2
01:59 34.6 °F 32 °F 30.33 in Calm     90% 0.00 in 0 W/m2
02:04 34.6 °F 32 °F 30.33 in Calm     90% 0.00 in 0 W/m2
02:09 34.6 °F 32 °F 30.34 in Calm     90% 0.00 in 0 W/m2
02:14 34.6 °F 32 °F 30.34 in Calm     90% 0.00 in 0 W/m2
02:19 34.6 °F 32.1 °F 30.34 in Calm     90.4% 0.00 in 0 W/m2
02:24 34.7 °F 32.3 °F 30.34 in Calm     91% 0.00 in 0 W/m2
02:29 34.8 °F 32.4 °F 30.34 in Calm     91% 0.00 in 0 W/m2
02:34 34.8 °F 32.5 °F 30.34 in Calm     91% 0.00 in 0 W/m2
02:39 34.9 °F 32.5 °F 30.34 in Calm     91% 0.00 in 0 W/m2
02:44 35 °F 32.6 °F 30.34 in Calm     91% 0.00 in 0 W/m2
02:49 35 °F 32.7 °F 30.34 in Calm   1 mph 91% 0.00 in 0 W/m2
02:54 35.1 °F 32.7 °F 30.34 in Calm   1 mph 90.8% 0.00 in 0 W/m2
02:59 35.1 °F 32.5 °F 30.33 in Calm   1 mph 90% 0.00 in 0 W/m2
03:04 35.1 °F 32.5 °F 30.33 in Calm   1 mph 90% 0.00 in 0 W/m2
03:09 35.1 °F 32.5 °F 30.33 in Calm     90% 0.00 in 0 W/m2
03:14 35.1 °F 32.5 °F 30.33 in Calm     90% 0.00 in 0 W/m2
03:19 35.1 °F 32.5 °F 30.33 in Calm     90% 0.00 in 0 W/m2
03:24 35 °F 32.4 °F 30.33 in Calm     90% 0.00 in 0 W/m2
03:29 35 °F 32.1 °F 30.34 in Calm     89.1% 0.00 in 0 W/m2
03:34 35 °F 32 °F 30.33 in Calm     89% 0.00 in 0 W/m2
03:39 34.9 °F 32 °F 30.33 in Calm     89% 0.00 in 0 W/m2
03:44 34.8 °F 31.9 °F 30.33 in Calm     89% 0.00 in 0 W/m2
03:49 34.8 °F 31.9 °F 30.33 in Calm     89% 0.00 in 0 W/m2
03:54 34.7 °F 31.8 °F 30.33 in Calm     89% 0.00 in 0 W/m2
03:59 34.7 °F 31.8 °F 30.33 in Calm     89% 0.00 in 0 W/m2
04:04 34.6 °F 31.7 °F 30.34 in Calm     89% 0.00 in 0 W/m2
04:09 34.6 °F 31.7 °F 30.34 in Calm     89% 0.00 in 0 W/m2
04:14 34.6 °F 31.7 °F 30.33 in Calm     89.1% 0.00 in 0 W/m2
04:19 34.6 °F 32 °F 30.33 in Calm     90% 0.00 in 0 W/m2
04:24 34.6 °F 32 °F 30.34 in Calm     90% 0.00 in 0 W/m2
04:29 34.7 °F 32.1 °F 30.33 in Calm     90% 0.00 in 0 W/m2
04:34 34.8 °F 32.2 °F 30.34 in Calm     90% 0.00 in 0 W/m2
04:39 34.9 °F 32.3 °F 30.34 in Calm     90% 0.00 in 0 W/m2
04:44 35 °F 32.4 °F 30.33 in Calm     90% 0.00 in 0 W/m2
04:49 35.1 °F 32.4 °F 30.33 in Calm     90% 0.00 in 0 W/m2
04:54 35.2 °F 32.8 °F 30.33 in Calm     91% 0.00 in 0 W/m2
04:59 35.3 °F 32.9 °F 30.33 in Calm     91% 0.00 in 0 W/m2
05:04 35.4 °F 32.9 °F 30.34 in Calm     90.5% 0.00 in 0 W/m2
05:09 35.5 °F 32.9 °F 30.34 in Calm     90% 0.00 in 0 W/m2
05:14 35.5 °F 32.9 °F 30.33 in Calm     90% 0.00 in 0 W/m2
05:19 35.5 °F 32.9 °F 30.34 in Calm     90% 0.00 in 0 W/m2
05:24 35.6 °F 32.9 °F 30.34 in Calm     90% 0.00 in 0 W/m2
05:29 35.6 °F 33 °F 30.34 in Calm     90% 0.00 in 0 W/m2
05:34 35.6 °F 33 °F 30.34 in Calm     90% 0.00 in 0 W/m2
05:39 35.6 °F 33 °F 30.34 in Calm     90% 0.00 in 0 W/m2
05:44 35.6 °F 33 °F 30.33 in Calm     90% 0.00 in 0 W/m2
05:49 35.6 °F 33 °F 30.34 in Calm     90% 0.00 in 0 W/m2
05:54 35.5 °F 32.9 °F 30.34 in Calm     90% 0.00 in 0 W/m2
05:59 35.5 °F 32.9 °F 30.34 in Calm     90% 0.00 in 0 W/m2
06:04 35.5 °F 32.9 °F 30.34 in Calm     90% 0.00 in 0 W/m2
06:09 35.5 °F 32.9 °F 30.35 in Calm     90% 0.00 in 0 W/m2
06:14 35.5 °F 32.8 °F 30.35 in Calm     90% 0.00 in 0 W/m2
06:19 35.4 °F 32.8 °F 30.35 in Calm     90% 0.00 in 0 W/m2
06:24 35.4 °F 32.7 °F 30.35 in Calm     90% 0.00 in 0 W/m2
06:29 35.3 °F 32.7 °F 30.35 in Calm     90% 0.00 in 0 W/m2
06:34 35.3 °F 32.7 °F 30.35 in Calm     90% 0.00 in 0 W/m2
06:39 35.3 °F 32.7 °F 30.34 in Calm     90% 0.00 in 0 W/m2
06:44 35.3 °F 32.7 °F 30.34 in Calm     90% 0.00 in 0 W/m2
06:49 35.3 °F 32.7 °F 30.34 in Calm     90% 0.00 in 0 W/m2
06:54 35.3 °F 32.7 °F 30.34 in Calm     90% 0.00 in 0 W/m2
06:59 35.3 °F 32.7 °F 30.34 in Calm     90% 0.00 in 0 W/m2
07:04 35.3 °F 32.6 °F 30.34 in Calm     90% 0.00 in 0 W/m2
07:09 35.2 °F 32.6 °F 30.34 in Calm     90% 0.00 in 0 W/m2
07:14 35.2 °F 32.6 °F 30.34 in Calm     90% 0.00 in 5 W/m2
07:19 35.2 °F 32.6 °F 30.34 in Calm     90% 0.00 in 7 W/m2
07:24 35.3 °F 32.6 °F 30.33 in Calm     90% 0.00 in 9 W/m2
07:29 35.3 °F 32.7 °F 30.33 in Calm     90% 0.00 in 14 W/m2
07:34 35.5 °F 32.9 °F 30.34 in Calm     90.3% 0.00 in 19 W/m2
07:39 35.6 °F 33.2 °F 30.34 in Calm     91% 0.00 in 23 W/m2
07:44 35.8 °F 33.4 °F 30.34 in Calm     91% 0.00 in 32 W/m2
07:49 35.9 °F 33.5 °F 30.34 in Calm     91% 0.00 in 35 W/m2
07:54 36 °F 33.7 °F 30.34 in Calm     91% 0.00 in 44 W/m2
07:59 36.2 °F 33.8 °F 30.34 in Calm     91% 0.00 in 47 W/m2
08:00 36.2 °F 33.8 °F 30.34 in Calm     91% 0.00 in 47 W/m2
08:09 36.6 °F 34.2 °F 30.34 in Calm     91% 0.00 in 60 W/m2
08:14 36.8 °F 34.4 °F 30.34 in Calm   1 mph 91% 0.00 in 67 W/m2
08:19 37.1 °F 34.7 °F 30.34 in Calm   1 mph 91% 0.00 in 69 W/m2
08:24 37.4 °F 35 °F 30.34 in Calm   1 mph 91% 0.00 in 72 W/m2
08:29 37.7 °F 35.3 °F 30.34 in Calm   1 mph 91% 0.00 in 77 W/m2
08:34 38 °F 35.6 °F 30.35 in Calm   1 mph 91% 0.00 in 81 W/m2
08:39 38.4 °F 36.2 °F 30.35 in Calm     91.7% 0.00 in 84 W/m2
08:44 38.8 °F 36.7 °F 30.34 in Calm     92% 0.00 in 88 W/m2
08:49 39.4 °F 37.2 °F 30.35 in Calm     92% 0.00 in 95 W/m2
08:54 39.9 °F 37.8 °F 30.35 in Calm     92% 0.00 in 98 W/m2
08:59 40.4 °F 38.2 °F 30.35 in Calm     92% 0.00 in 98 W/m2
09:04 40.7 °F 38.6 °F 30.35 in Calm     92% 0.00 in 97 W/m2
09:09 41.1 °F 39 °F 30.35 in Calm     92% 0.00 in 97 W/m2
09:14 41.4 °F 39.3 °F 30.35 in Calm     92% 0.00 in 97 W/m2
09:19 41.7 °F 39.6 °F 30.35 in Calm     92% 0.00 in 111 W/m2
09:24 42.1 °F 39.9 °F 30.35 in Calm     91.9% 0.00 in 118 W/m2
09:29 42.4 °F 40.1 °F 30.35 in Calm     91.3% 0.00 in 123 W/m2
09:34 42.8 °F 40.4 °F 30.34 in Calm     91% 0.00 in 130 W/m2
09:39 43.2 °F 40.7 °F 30.34 in Calm     91% 0.00 in 132 W/m2
09:44 43.4 °F 40.9 °F 30.34 in Calm     90.5% 0.00 in 134 W/m2
09:49 43.8 °F 41 °F 30.35 in Calm     90% 0.00 in 132 W/m2
09:54 44.1 °F 41.4 °F 30.35 in Calm     90% 0.00 in 132 W/m2
09:59 44.6 °F 41.8 °F 30.35 in Calm     90% 0.00 in 134 W/m2
10:04 45 °F 42.3 °F 30.35 in Calm     90% 0.00 in 125 W/m2
10:09 45.4 °F 42.4 °F 30.35 in Calm     89.2% 0.00 in 111 W/m2
10:14 45.7 °F 42.6 °F 30.35 in Calm     89% 0.00 in 113 W/m2
10:19 46 °F 42.9 °F 30.34 in SSW 0.2 mph 2 mph 89% 0.00 in 111 W/m2
10:24 46.2 °F 43.1 °F 30.35 in SSW 0.3 mph 2 mph 88.8% 0.00 in 98 W/m2
10:29 46.4 °F 43.3 °F 30.35 in Calm   2 mph 88.6% 0.00 in 84 W/m2
10:32 46.5 °F 43.2 °F 30.35 in Calm   2 mph 88% 0.00 in 90 W/m2
11:00 47.7 °F 44.3 °F 30.33 in Calm   2 mph 88% 0.00 in 85 W/m2
11:30 48.4 °F 45 °F 30.32 in Calm   2 mph 88% 0.00 in 47 W/m2
12:04 48.6 °F 45.2 °F 30.32 in Calm   2 mph 88% 0.00 in 69 W/m2
12:09 48.6 °F 45.3 °F 30.32 in Calm     88% 0.00 in 69 W/m2
12:14 48.7 °F 45.4 °F 30.32 in Calm     88% 0.00 in 69 W/m2
12:19 48.9 °F 45.5 °F 30.32 in Calm     88% 0.00 in 60 W/m2
12:24 49 °F 45.7 °F 30.32 in Calm     88.5% 0.00 in 49 W/m2
12:29 49.1 °F 45.7 °F 30.31 in Calm     88% 0.00 in 58 W/m2
12:34 49.2 °F 45.8 °F 30.31 in Calm     88% 0.00 in 60 W/m2
12:39 49.3 °F 45.9 °F 30.32 in Calm     88% 0.00 in 90 W/m2
12:44 49.4 °F 46 °F 30.32 in Calm     88.2% 0.00 in 90 W/m2
12:49 49.5 °F 46.1 °F 30.31 in Calm     88% 0.00 in 88 W/m2
12:54 49.6 °F 46.7 °F 30.31 in Calm     89.6% 0.00 in 91 W/m2
12:59 49.7 °F 46.7 °F 30.30 in Calm   1 mph 89.3% 0.00 in 88 W/m2
13:04 49.9 °F 46.8 °F 30.31 in Calm   1 mph 89% 0.00 in 83 W/m2
13:09 50 °F 46.6 °F 30.31 in Calm   1 mph 88.3% 0.00 in 65 W/m2
13:14 50 °F 46.6 °F 30.31 in Calm   1 mph 88% 0.00 in 63 W/m2
13:19 50 °F 46.6 °F 30.31 in Calm   1 mph 88% 0.00 in 63 W/m2
13:24 50 °F 46.6 °F 30.31 in Calm   1 mph 88% 0.00 in 60 W/m2
13:29 50.1 °F 46.7 °F 30.31 in Calm   1 mph 88% 0.00 in 47 W/m2
13:34 50.1 °F 46.6 °F 30.31 in Calm   1 mph 87.9% 0.00 in 47 W/m2
13:39 50.1 °F 46.5 °F 30.31 in Calm     87.2% 0.00 in 54 W/m2
13:44 50.1 °F 46.5 °F 30.31 in Calm     87.3% 0.00 in 56 W/m2
13:49 50.2 °F 46.8 °F 30.31 in Calm     88% 0.00 in 53 W/m2
13:54 50.2 °F 46.8 °F 30.31 in Calm     88% 0.00 in 72 W/m2
13:59 50.3 °F 46.9 °F 30.30 in Calm     88% 0.00 in 74 W/m2
14:04 50.3 °F 46.9 °F 30.31 in Calm     88% 0.00 in 56 W/m2
14:09 50.3 °F 46.9 °F 30.31 in Calm     88% 0.00 in 63 W/m2
14:14 50.4 °F 47.1 °F 30.30 in Calm     88.4% 0.00 in 69 W/m2
14:19 50.5 °F 47.4 °F 30.30 in Calm     89% 0.00 in 69 W/m2
14:24 50.5 °F 47.4 °F 30.30 in Calm     89% 0.00 in 56 W/m2
14:29 50.5 °F 47.4 °F 30.30 in Calm     89% 0.00 in 44 W/m2
14:34 50.5 °F 47.4 °F 30.30 in Calm     89% 0.00 in 37 W/m2
14:39 50.5 °F 47.4 °F 30.30 in Calm     89% 0.00 in 35 W/m2
14:44 50.5 °F 47.4 °F 30.30 in Calm     89% 0.00 in 42 W/m2
14:49 50.5 °F 47.3 °F 30.30 in Calm     89% 0.00 in 39 W/m2
14:54 50.4 °F 47.4 °F 30.30 in Calm     89.3% 0.00 in 23 W/m2
14:59 50.4 °F 47.6 °F 30.30 in Calm     90% 0.00 in 32 W/m2
15:04 50.4 °F 47.6 °F 30.30 in Calm     90% 0.00 in 33 W/m2
15:09 50.3 °F 47.5 °F 30.30 in Calm     90% 0.00 in 35 W/m2
15:14 50.3 °F 47.5 °F 30.30 in Calm     90% 0.00 in 35 W/m2
15:19 50.4 °F 47.8 °F 30.30 in Calm     90.7% 0.00 in 25 W/m2
15:24 50.4 °F 47.9 °F 30.30 in Calm     91% 0.00 in 14 W/m2
15:29 50.5 °F 47.9 °F 30.30 in Calm     91% 0.00 in 12 W/m2
15:34 50.5 °F 48 °F 30.30 in Calm     91% 0.00 in 12 W/m2
15:39 50.7 °F 48.1 °F 30.30 in Calm     91% 0.00 in 11 W/m2
15:44 50.9 °F 48.4 °F 30.30 in Calm     91% 0.01 in 9 W/m2
15:49 51.3 °F 48.7 °F 30.30 in Calm     91% 0.02 in 9 W/m2
15:54 51.6 °F 49.1 °F 30.30 in Calm     91% 0.02 in 11 W/m2
15:59 51.9 °F 49.4 °F 30.30 in Calm     91% 0.02 in 11 W/m2
16:04 52.3 °F 49.7 °F 30.30 in Calm     91% 0.02 in 0 W/m2
16:09 52.3 °F 49.8 °F 30.30 in Calm   1 mph 90.8% 0.02 in 0 W/m2
16:14 52.5 °F 49.7 °F 30.30 in Calm   1 mph 90.2% 0.02 in 0 W/m2
16:19 52.6 °F 49.8 °F 30.30 in Calm   1 mph 90% 0.02 in 0 W/m2
16:24 52.6 °F 49.8 °F 30.30 in Calm   1 mph 90% 0.02 in 0 W/m2
16:29 52.6 °F 49.8 °F 30.30 in Calm   1 mph 90% 0.02 in 0 W/m2
16:34 52.6 °F 49.7 °F 30.30 in Calm   1 mph 90% 0.02 in 0 W/m2
16:39 52.6 °F 49.8 °F 30.30 in Calm     90.2% 0.02 in 0 W/m2
16:44 52.7 °F 50.1 °F 30.30 in Calm     90.7% 0.02 in 0 W/m2
16:49 52.9 °F 50.4 °F 30.31 in Calm     91% 0.02 in 0 W/m2
16:54 53 °F 50.4 °F 30.31 in Calm     90.7% 0.02 in 0 W/m2
16:59 53 °F 50.2 °F 30.30 in SSW 0.1 mph 1 mph 90% 0.02 in 0 W/m2
17:04 53.1 °F 50.6 °F 30.30 in SSW 0.7 mph 3 mph 90.9% 0.02 in 0 W/m2
17:09 53.4 °F 50.9 °F 30.30 in SSW 0.7 mph 4 mph 91% 0.00 in 0 W/m2
17:14 53.7 °F 51.1 °F 30.30 in SSW 0.4 mph 4 mph 91% 0.00 in 0 W/m2
17:19 53.9 °F 51.3 °F 30.30 in Calm   4 mph 91% 0.00 in 0 W/m2
17:24 54.1 °F 51.3 °F 30.30 in SSW 0.3 mph 4 mph 90.4% 0.00 in 0 W/m2
17:29 54.2 °F 51.4 °F 30.30 in SSW 0.4 mph 4 mph 90% 0.00 in 0 W/m2
17:34 54.4 °F 51.5 °F 30.30 in SSW 0.1 mph 4 mph 90% 0.00 in 0 W/m2
17:39 54.4 °F 51.5 °F 30.30 in SSW 0.2 mph 2 mph 90% 0.00 in 0 W/m2
17:44 54.5 °F 51.5 °F 30.30 in Calm   2 mph 89.6% 0.00 in 0 W/m2
17:49 54.5 °F 51.3 °F 30.30 in SSW 0.5 mph 4 mph 89% 0.00 in 0 W/m2
17:54 54.5 °F 51.3 °F 30.30 in SSW 0.4 mph 4 mph 89% 0.00 in 0 W/m2
17:59 54.6 °F 51.4 °F 30.30 in SSW 0.3 mph 4 mph 89% 0.00 in 0 W/m2
18:04 54.6 °F 51.5 °F 30.30 in South 1.2 mph 5 mph 89% 0.00 in 0 W/m2
18:09 54.8 °F 51.6 °F 30.30 in South 0.2 mph 5 mph 89% 0.00 in 0 W/m2
18:14 54.8 °F 51.6 °F 30.29 in South 0.4 mph 5 mph 89% 0.00 in 0 W/m2
18:19 54.8 °F 51.7 °F 30.29 in South 0.4 mph 5 mph 89% 0.00 in 0 W/m2
18:24 54.9 °F 51.7 °F 30.30 in South 0.9 mph 5 mph 89% 0.00 in 0 W/m2
18:29 54.9 °F 51.5 °F 30.30 in South 0.6 mph 5 mph 88.4% 0.00 in 0 W/m2
18:34 54.9 °F 51.7 °F 30.29 in South 2 mph 5 mph 88.8% 0.00 in 0 W/m2
18:39 55 °F 51.8 °F 30.29 in South 0.8 mph 5 mph 89% 0.00 in 0 W/m2
18:44 55.1 °F 51.8 °F 30.29 in South 0.7 mph 5 mph 88.8% 0.00 in 0 W/m2
18:49 55.1 °F 51.9 °F 30.29 in South 1 mph 5 mph 89% 0.00 in 0 W/m2
18:54 55.1 °F 51.8 °F 30.28 in South 1.1 mph 5 mph 88.6% 0.00 in 0 W/m2
18:59 55.2 °F 51.9 °F 30.28 in SSE 1.8 mph 7 mph 88.5% 0.00 in 0 W/m2
19:04 55.2 °F 52 °F 30.29 in South 0.5 mph 7 mph 89% 0.00 in 0 W/m2
19:09 55.2 °F 52 °F 30.29 in South 0.8 mph 6 mph 88.8% 0.00 in 0 W/m2
19:14 55.2 °F 52 °F 30.29 in South 0.6 mph 6 mph 88.8% 0.00 in 0 W/m2
19:19 55.2 °F 52 °F 30.29 in South 0.8 mph 6 mph 89% 0.00 in 0 W/m2
19:24 55.2 °F 52.1 °F 30.29 in South 0.8 mph 6 mph 89% 0.00 in 0 W/m2
19:29 55.2 °F 52 °F 30.30 in South 1 mph 6 mph 89% 0.00 in 0 W/m2
19:34 55.2 °F 52 °F 30.29 in South 0.8 mph 6 mph 89% 0.00 in 0 W/m2
19:39 55.1 °F 51.9 °F 30.29 in South 0.7 mph 4 mph 89% 0.00 in 0 W/m2
19:44 55.1 °F 51.9 °F 30.29 in South 0.8 mph 4 mph 89% 0.00 in 0 W/m2
19:49 55.1 °F 51.9 °F 30.29 in South 0.6 mph 4 mph 89% 0.00 in 0 W/m2
19:54 55 °F 51.8 °F 30.29 in South 0.6 mph 4 mph 89% 0.00 in 0 W/m2
19:59 55 °F 51.9 °F 30.29 in South 1.2 mph 4 mph 89.4% 0.00 in 0 W/m2
20:00 55 °F 52.1 °F 30.29 in Calm   4 mph 90% 0.00 in 0 W/m2
20:09 55.1 °F 52.2 °F 30.29 in South 1.7 mph 6 mph 90% 0.00 in 0 W/m2
20:14 55.1 °F 52.2 °F 30.29 in South 0.6 mph 6 mph 90% 0.00 in 0 W/m2
20:19 55 °F 52.2 °F 30.30 in South 1.4 mph 6 mph 90% 0.00 in 0 W/m2
20:24 55 °F 52.1 °F 30.30 in South 0.9 mph 6 mph 90% 0.00 in 0 W/m2
20:29 55 °F 52.4 °F 30.30 in South 0.4 mph 6 mph 90.9% 0.00 in 0 W/m2
20:34 55 °F 52.2 °F 30.30 in South 0.8 mph 6 mph 90.3% 0.00 in 0 W/m2
20:39 55 °F 52.4 °F 30.30 in SSE 0.8 mph 4 mph 91% 0.00 in 0 W/m2
20:44 54.9 °F 52.4 °F 30.29 in SSE 0.7 mph 4 mph 91% 0.00 in 0 W/m2
20:49 54.9 °F 52.3 °F 30.29 in SSE 1.4 mph 6 mph 91% 0.00 in 0 W/m2
20:54 54.9 °F 52.3 °F 30.29 in South 2.7 mph 11 mph 91% 0.00 in 0 W/m2
20:59 55 °F 52.4 °F 30.29 in South 1.2 mph 11 mph 91% 0.00 in 0 W/m2
21:04 54.9 °F 52.3 °F 30.29 in South 0.6 mph 11 mph 91% 0.01 in 0 W/m2
21:09 54.9 °F 52.3 °F 30.28 in South 1.2 mph 9 mph 91% 0.02 in 0 W/m2
21:14 54.8 °F 52.4 °F 30.28 in South 0.6 mph 9 mph 91.6% 0.02 in 0 W/m2
21:19 54.7 °F 52.5 °F 30.28 in South 0.5 mph 9 mph 92% 0.02 in 0 W/m2
21:24 54.6 °F 52.4 °F 30.28 in South 1 mph 9 mph 92% 0.02 in 0 W/m2
21:29 54.6 °F 52.3 °F 30.28 in South 0.4 mph 9 mph 92% 0.02 in 0 W/m2
21:30 54.5 °F 52.2 °F 30.28 in Calm   9 mph 92% 0.02 in 0 W/m2
22:00 54.4 °F 52.4 °F 30.27 in Calm   4 mph 93% 0.05 in 0 W/m2
22:30 54.3 °F 52.6 °F 30.26 in Calm   5 mph 94% 0.07 in 0 W/m2
23:04 54.2 °F 52.5 °F 30.26 in Calm   5 mph 94% 0.08 in 0 W/m2
23:09 54.2 °F 52.5 °F 30.26 in South 0.2 mph 2 mph 94% 0.08 in 0 W/m2
23:14 54.2 °F 52.5 °F 30.26 in South 0.4 mph 3 mph 94% 0.08 in 0 W/m2
23:19 54.2 °F 52.8 °F 30.26 in South 0.2 mph 3 mph 94.9% 0.08 in 0 W/m2
23:24 54.2 °F 52.5 °F 30.25 in South 0.2 mph 3 mph 94% 0.08 in 0 W/m2
23:29 54.2 °F 52.6 °F 30.25 in South 0.2 mph 4 mph 94.2% 0.08 in 0 W/m2
23:34 54.3 °F 52.9 °F 30.25 in South 0.4 mph 4 mph 95% 0.08 in 0 W/m2
23:39 54.3 °F 52.9 °F 30.25 in South 0.5 mph 3 mph 95% 0.04 in 0 W/m2
23:44 54.3 °F 52.9 °F 30.25 in South 0.2 mph 3 mph 95% 0.05 in 0 W/m2
23:49 54.3 °F 52.9 °F 30.25 in SSE 0.1 mph 3 mph 95% 0.06 in 0 W/m2
23:54 54.3 °F 52.9 °F 30.25 in Calm   3 mph 95% 0.07 in 0 W/m2
23:59 54.4 °F 53 °F 30.25 in SSE 0.7 mph 3 mph 95% 0.08 in 0 W/m2
Hartford County Weather
Compliments of Weather Underground - 4 mb